sensor_id;sensor_type;location;lat;lon;timestamp;temperature;humidity
11609;DHT22;5860;52.018;8.536;2022-09-09T00:00:47;15.90;99.90
11609;DHT22;5860;52.018;8.536;2022-09-09T00:03:18;15.90;99.90
11609;DHT22;5860;52.018;8.536;2022-09-09T00:06:06;15.80;99.90
11609;DHT22;5860;52.018;8.536;2022-09-09T00:09:08;15.70;99.90
11609;DHT22;5860;52.018;8.536;2022-09-09T00:11:41;15.80;99.90
11609;DHT22;5860;52.018;8.536;2022-09-09T00:17:40;15.80;99.90
11609;DHT22;5860;52.018;8.536;2022-09-09T00:20:26;15.70;99.90
11609;DHT22;5860;52.018;8.536;2022-09-09T00:23:13;15.70;99.90
11609;DHT22;5860;52.018;8.536;2022-09-09T00:25:50;15.70;99.90
11609;DHT22;5860;52.018;8.536;2022-09-09T00:28:21;15.80;99.90
11609;DHT22;5860;52.018;8.536;2022-09-09T00:30:49;15.90;99.90
11609;DHT22;5860;52.018;8.536;2022-09-09T00:33:20;16.00;99.90
11609;DHT22;5860;52.018;8.536;2022-09-09T00:35:56;16.00;99.90
11609;DHT22;5860;52.018;8.536;2022-09-09T00:38:28;16.10;99.90
11609;DHT22;5860;52.018;8.536;2022-09-09T00:41:19;16.10;99.90
11609;DHT22;5860;52.018;8.536;2022-09-09T00:49:50;16.00;99.90
11609;DHT22;5860;52.018;8.536;2022-09-09T00:58:23;15.90;99.90
11609;DHT22;5860;52.018;8.536;2022-09-09T01:00:57;15.90;99.90
11609;DHT22;5860;52.018;8.536;2022-09-09T01:03:56;15.80;99.90
11609;DHT22;5860;52.018;8.536;2022-09-09T01:06:35;15.80;99.90
11609;DHT22;5860;52.018;8.536;2022-09-09T01:09:32;15.80;99.90
11609;DHT22;5860;52.018;8.536;2022-09-09T01:12:23;15.80;99.90
11609;DHT22;5860;52.018;8.536;2022-09-09T01:14:56;15.80;99.90
11609;DHT22;5860;52.018;8.536;2022-09-09T01:17:34;15.80;99.90
11609;DHT22;5860;52.018;8.536;2022-09-09T01:20:05;15.80;99.90
11609;DHT22;5860;52.018;8.536;2022-09-09T01:22:34;15.80;99.90
11609;DHT22;5860;52.018;8.536;2022-09-09T01:27:49;15.70;99.90
11609;DHT22;5860;52.018;8.536;2022-09-09T01:30:18;15.60;99.90
11609;DHT22;5860;52.018;8.536;2022-09-09T01:32:52;15.70;99.90
11609;DHT22;5860;52.018;8.536;2022-09-09T01:35:57;15.70;99.90
11609;DHT22;5860;52.018;8.536;2022-09-09T01:38:17;15.80;99.90
11609;DHT22;5860;52.018;8.536;2022-09-09T01:40:45;15.70;99.90
11609;DHT22;5860;52.018;8.536;2022-09-09T01:43:11;15.70;99.90
11609;DHT22;5860;52.018;8.536;2022-09-09T01:45:41;15.80;99.90
11609;DHT22;5860;52.018;8.536;2022-09-09T01:48:09;15.80;99.90
11609;DHT22;5860;52.018;8.536;2022-09-09T01:50:36;15.80;99.90
11609;DHT22;5860;52.018;8.536;2022-09-09T01:53:03;15.80;99.90
11609;DHT22;5860;52.018;8.536;2022-09-09T01:55:40;15.80;99.90
11609;DHT22;5860;52.018;8.536;2022-09-09T02:00:38;15.90;99.90
11609;DHT22;5860;52.018;8.536;2022-09-09T02:03:26;15.90;99.90
11609;DHT22;5860;52.018;8.536;2022-09-09T02:06:15;15.90;99.90
11609;DHT22;5860;52.018;8.536;2022-09-09T02:08:50;15.80;99.90
11609;DHT22;5860;52.018;8.536;2022-09-09T02:11:18;15.80;99.90
11609;DHT22;5860;52.018;8.536;2022-09-09T02:13:48;15.80;99.90
11609;DHT22;5860;52.018;8.536;2022-09-09T02:16:26;15.70;99.90
11609;DHT22;5860;52.018;8.536;2022-09-09T02:19:32;15.70;99.90
11609;DHT22;5860;52.018;8.536;2022-09-09T02:21:59;15.60;99.90
11609;DHT22;5860;52.018;8.536;2022-09-09T02:24:29;15.60;99.90
11609;DHT22;5860;52.018;8.536;2022-09-09T02:26:58;15.60;99.90
11609;DHT22;5860;52.018;8.536;2022-09-09T02:29:53;15.50;99.90
11609;DHT22;5860;52.018;8.536;2022-09-09T02:32:22;15.40;99.90
11609;DHT22;5860;52.018;8.536;2022-09-09T02:37:58;15.50;99.90
11609;DHT22;5860;52.018;8.536;2022-09-09T02:40:26;15.40;99.90
11609;DHT22;5860;52.018;8.536;2022-09-09T02:42:54;15.50;99.90
11609;DHT22;5860;52.018;8.536;2022-09-09T02:45:25;15.50;99.90
11609;DHT22;5860;52.018;8.536;2022-09-09T02:51:10;15.50;99.90
11609;DHT22;5860;52.018;8.536;2022-09-09T02:53:57;15.50;99.90
11609;DHT22;5860;52.018;8.536;2022-09-09T02:56:30;15.50;99.90
11609;DHT22;5860;52.018;8.536;2022-09-09T02:58:59;15.50;99.90
11609;DHT22;5860;52.018;8.536;2022-09-09T03:01:26;15.60;99.90
11609;DHT22;5860;52.018;8.536;2022-09-09T03:03:53;15.60;99.90
11609;DHT22;5860;52.018;8.536;2022-09-09T03:06:21;15.50;99.90
11609;DHT22;5860;52.018;8.536;2022-09-09T03:08:48;15.50;99.90
11609;DHT22;5860;52.018;8.536;2022-09-09T03:11:17;15.50;99.90
11609;DHT22;5860;52.018;8.536;2022-09-09T03:13:43;15.50;99.90
11609;DHT22;5860;52.018;8.536;2022-09-09T03:16:10;15.50;99.90
11609;DHT22;5860;52.018;8.536;2022-09-09T03:18:37;15.50;99.90
11609;DHT22;5860;52.018;8.536;2022-09-09T03:21:04;15.50;99.90
11609;DHT22;5860;52.018;8.536;2022-09-09T03:23:31;15.60;99.90
11609;DHT22;5860;52.018;8.536;2022-09-09T03:25:57;15.60;99.90
11609;DHT22;5860;52.018;8.536;2022-09-09T03:28:25;15.60;99.90
11609;DHT22;5860;52.018;8.536;2022-09-09T03:31:02;15.70;99.90
11609;DHT22;5860;52.018;8.536;2022-09-09T03:33:29;15.80;99.90
11609;DHT22;5860;52.018;8.536;2022-09-09T03:35:56;15.90;99.90
11609;DHT22;5860;52.018;8.536;2022-09-09T03:38:24;15.90;99.90
11609;DHT22;5860;52.018;8.536;2022-09-09T03:40:55;15.90;99.90
11609;DHT22;5860;52.018;8.536;2022-09-09T03:43:22;15.90;99.90
11609;DHT22;5860;52.018;8.536;2022-09-09T03:45:49;15.90;99.90
11609;DHT22;5860;52.018;8.536;2022-09-09T03:48:18;15.90;99.90
11609;DHT22;5860;52.018;8.536;2022-09-09T03:50:50;16.00;99.90
11609;DHT22;5860;52.018;8.536;2022-09-09T03:53:19;16.00;99.90
11609;DHT22;5860;52.018;8.536;2022-09-09T03:55:48;16.10;99.90
11609;DHT22;5860;52.018;8.536;2022-09-09T03:58:16;16.00;99.90
11609;DHT22;5860;52.018;8.536;2022-09-09T04:00:56;16.10;99.90
11609;DHT22;5860;52.018;8.536;2022-09-09T04:03:24;16.00;99.90
11609;DHT22;5860;52.018;8.536;2022-09-09T04:05:55;16.00;99.90
11609;DHT22;5860;52.018;8.536;2022-09-09T04:08:23;16.10;99.90
11609;DHT22;5860;52.018;8.536;2022-09-09T04:10:52;16.00;99.90
11609;DHT22;5860;52.018;8.536;2022-09-09T04:13:19;16.10;99.90
11609;DHT22;5860;52.018;8.536;2022-09-09T04:15:54;16.00;99.90
11609;DHT22;5860;52.018;8.536;2022-09-09T04:18:23;16.00;99.90
11609;DHT22;5860;52.018;8.536;2022-09-09T04:20:51;16.00;99.90
11609;DHT22;5860;52.018;8.536;2022-09-09T04:23:19;16.00;99.90
11609;DHT22;5860;52.018;8.536;2022-09-09T04:25:51;16.00;99.90
11609;DHT22;5860;52.018;8.536;2022-09-09T04:28:21;16.00;99.90
11609;DHT22;5860;52.018;8.536;2022-09-09T04:30:49;16.10;99.90
11609;DHT22;5860;52.018;8.536;2022-09-09T04:33:16;16.10;99.90
11609;DHT22;5860;52.018;8.536;2022-09-09T04:35:45;16.10;99.90
11609;DHT22;5860;52.018;8.536;2022-09-09T04:38:12;16.00;99.90
11609;DHT22;5860;52.018;8.536;2022-09-09T04:40:41;15.90;99.90
11609;DHT22;5860;52.018;8.536;2022-09-09T04:43:10;15.70;99.90
11609;DHT22;5860;52.018;8.536;2022-09-09T04:45:41;15.70;99.90
11609;DHT22;5860;52.018;8.536;2022-09-09T04:48:08;15.60;99.90
11609;DHT22;5860;52.018;8.536;2022-09-09T04:50:36;15.50;99.90
11609;DHT22;5860;52.018;8.536;2022-09-09T04:53:03;15.60;99.90
11609;DHT22;5860;52.018;8.536;2022-09-09T04:55:32;15.50;99.90
11609;DHT22;5860;52.018;8.536;2022-09-09T04:58:04;15.50;99.90
11609;DHT22;5860;52.018;8.536;2022-09-09T05:00:32;15.50;99.90
11609;DHT22;5860;52.018;8.536;2022-09-09T05:03:03;15.50;99.90
11609;DHT22;5860;52.018;8.536;2022-09-09T05:05:31;15.50;99.90
11609;DHT22;5860;52.018;8.536;2022-09-09T05:08:02;15.50;99.90
11609;DHT22;5860;52.018;8.536;2022-09-09T05:10:29;15.50;99.90
11609;DHT22;5860;52.018;8.536;2022-09-09T05:12:56;15.60;99.90
11609;DHT22;5860;52.018;8.536;2022-09-09T05:15:23;15.50;99.90
11609;DHT22;5860;52.018;8.536;2022-09-09T05:17:50;15.60;99.90
11609;DHT22;5860;52.018;8.536;2022-09-09T05:20:19;15.60;99.90
11609;DHT22;5860;52.018;8.536;2022-09-09T05:22:46;15.60;99.90
11609;DHT22;5860;52.018;8.536;2022-09-09T05:25:12;15.60;99.90
11609;DHT22;5860;52.018;8.536;2022-09-09T05:27:39;15.60;99.90
11609;DHT22;5860;52.018;8.536;2022-09-09T05:30:06;15.70;99.90
11609;DHT22;5860;52.018;8.536;2022-09-09T05:32:34;15.70;99.90
11609;DHT22;5860;52.018;8.536;2022-09-09T05:35:01;15.80;99.90
11609;DHT22;5860;52.018;8.536;2022-09-09T05:37:28;15.80;99.90
11609;DHT22;5860;52.018;8.536;2022-09-09T05:39:56;15.90;99.90
11609;DHT22;5860;52.018;8.536;2022-09-09T05:42:24;15.90;99.90
11609;DHT22;5860;52.018;8.536;2022-09-09T05:44:51;16.00;99.90
11609;DHT22;5860;52.018;8.536;2022-09-09T05:47:20;16.00;99.90
11609;DHT22;5860;52.018;8.536;2022-09-09T05:49:47;16.10;99.90
11609;DHT22;5860;52.018;8.536;2022-09-09T05:52:15;16.20;99.90
11609;DHT22;5860;52.018;8.536;2022-09-09T05:54:41;16.30;99.90
11609;DHT22;5860;52.018;8.536;2022-09-09T05:57:09;16.40;99.90
11609;DHT22;5860;52.018;8.536;2022-09-09T05:59:36;16.70;99.90
11609;DHT22;5860;52.018;8.536;2022-09-09T06:02:03;17.00;99.90
11609;DHT22;5860;52.018;8.536;2022-09-09T06:04:30;17.70;99.90
11609;DHT22;5860;52.018;8.536;2022-09-09T06:06:57;19.50;99.90
11609;DHT22;5860;52.018;8.536;2022-09-09T06:09:24;19.60;99.90
11609;DHT22;5860;52.018;8.536;2022-09-09T06:11:51;19.50;99.90
11609;DHT22;5860;52.018;8.536;2022-09-09T06:14:18;20.40;99.90
11609;DHT22;5860;52.018;8.536;2022-09-09T06:16:45;19.50;99.90
11609;DHT22;5860;52.018;8.536;2022-09-09T06:19:12;18.10;99.90
11609;DHT22;5860;52.018;8.536;2022-09-09T06:21:39;20.80;99.90
11609;DHT22;5860;52.018;8.536;2022-09-09T06:24:07;18.90;99.90
11609;DHT22;5860;52.018;8.536;2022-09-09T06:26:38;18.20;99.90
11609;DHT22;5860;52.018;8.536;2022-09-09T06:29:09;19.10;99.90
11609;DHT22;5860;52.018;8.536;2022-09-09T06:31:36;21.40;99.90
11609;DHT22;5860;52.018;8.536;2022-09-09T06:34:07;22.30;99.90
11609;DHT22;5860;52.018;8.536;2022-09-09T06:36:36;23.60;99.90
11609;DHT22;5860;52.018;8.536;2022-09-09T06:39:04;25.20;99.90
11609;DHT22;5860;52.018;8.536;2022-09-09T06:41:36;26.30;99.90
11609;DHT22;5860;52.018;8.536;2022-09-09T06:44:04;26.40;99.90
11609;DHT22;5860;52.018;8.536;2022-09-09T06:46:32;25.20;99.90
11609;DHT22;5860;52.018;8.536;2022-09-09T06:49:00;24.00;99.90
11609;DHT22;5860;52.018;8.536;2022-09-09T06:51:32;24.60;99.90
11609;DHT22;5860;52.018;8.536;2022-09-09T06:54:01;22.70;99.90
11609;DHT22;5860;52.018;8.536;2022-09-09T06:56:37;23.00;99.90
11609;DHT22;5860;52.018;8.536;2022-09-09T06:59:05;20.90;99.90
11609;DHT22;5860;52.018;8.536;2022-09-09T07:01:42;19.70;99.90
11609;DHT22;5860;52.018;8.536;2022-09-09T07:04:17;18.90;99.90
11609;DHT22;5860;52.018;8.536;2022-09-09T07:06:46;18.50;99.90
11609;DHT22;5860;52.018;8.536;2022-09-09T07:09:15;18.00;99.90
11609;DHT22;5860;52.018;8.536;2022-09-09T07:11:45;18.00;99.90
11609;DHT22;5860;52.018;8.536;2022-09-09T07:14:13;18.00;99.90
11609;DHT22;5860;52.018;8.536;2022-09-09T07:16:44;17.80;99.90
11609;DHT22;5860;52.018;8.536;2022-09-09T07:19:12;17.90;99.90
11609;DHT22;5860;52.018;8.536;2022-09-09T07:21:41;17.80;99.90
11609;DHT22;5860;52.018;8.536;2022-09-09T07:24:10;17.80;99.90
11609;DHT22;5860;52.018;8.536;2022-09-09T07:26:38;17.80;99.90
11609;DHT22;5860;52.018;8.536;2022-09-09T07:29:06;17.90;99.90
11609;DHT22;5860;52.018;8.536;2022-09-09T07:31:35;17.90;99.90
11609;DHT22;5860;52.018;8.536;2022-09-09T07:34:04;17.80;99.90
11609;DHT22;5860;52.018;8.536;2022-09-09T07:36:33;17.90;99.90
11609;DHT22;5860;52.018;8.536;2022-09-09T07:39:08;18.00;99.90
11609;DHT22;5860;52.018;8.536;2022-09-09T07:41:46;18.00;99.90
11609;DHT22;5860;52.018;8.536;2022-09-09T07:44:15;17.80;99.90
11609;DHT22;5860;52.018;8.536;2022-09-09T07:46:43;17.80;99.90
11609;DHT22;5860;52.018;8.536;2022-09-09T07:49:12;18.00;99.90
11609;DHT22;5860;52.018;8.536;2022-09-09T07:51:42;18.10;99.90
11609;DHT22;5860;52.018;8.536;2022-09-09T07:54:11;18.00;99.90
11609;DHT22;5860;52.018;8.536;2022-09-09T07:56:39;18.20;99.90
11609;DHT22;5860;52.018;8.536;2022-09-09T07:59:07;18.10;99.90
11609;DHT22;5860;52.018;8.536;2022-09-09T08:01:44;18.00;99.90
11609;DHT22;5860;52.018;8.536;2022-09-09T08:04:14;18.10;99.90
11609;DHT22;5860;52.018;8.536;2022-09-09T08:06:50;18.20;99.90
11609;DHT22;5860;52.018;8.536;2022-09-09T08:09:20;18.20;99.90
11609;DHT22;5860;52.018;8.536;2022-09-09T08:11:48;18.40;99.90
11609;DHT22;5860;52.018;8.536;2022-09-09T08:14:14;18.70;99.90
11609;DHT22;5860;52.018;8.536;2022-09-09T08:16:44;19.10;99.90
11609;DHT22;5860;52.018;8.536;2022-09-09T08:19:11;19.30;99.90
11609;DHT22;5860;52.018;8.536;2022-09-09T08:21:39;19.20;99.90
11609;DHT22;5860;52.018;8.536;2022-09-09T08:24:08;19.40;99.90
11609;DHT22;5860;52.018;8.536;2022-09-09T08:26:42;19.30;99.90
11609;DHT22;5860;52.018;8.536;2022-09-09T08:29:10;19.80;99.90
11609;DHT22;5860;52.018;8.536;2022-09-09T08:31:54;19.80;99.90
11609;DHT22;5860;52.018;8.536;2022-09-09T08:34:21;19.80;99.90
11609;DHT22;5860;52.018;8.536;2022-09-09T08:36:50;20.10;99.90
11609;DHT22;5860;52.018;8.536;2022-09-09T08:39:19;20.30;99.90
11609;DHT22;5860;52.018;8.536;2022-09-09T08:42:20;20.20;99.90
11609;DHT22;5860;52.018;8.536;2022-09-09T08:48:06;20.50;99.90
11609;DHT22;5860;52.018;8.536;2022-09-09T08:50:37;20.40;99.90
11609;DHT22;5860;52.018;8.536;2022-09-09T08:55:52;20.30;99.90
11609;DHT22;5860;52.018;8.536;2022-09-09T08:58:28;20.20;99.90
11609;DHT22;5860;52.018;8.536;2022-09-09T09:11:40;19.20;99.90
11609;DHT22;5860;52.018;8.536;2022-09-09T09:14:22;19.50;99.90
11609;DHT22;5860;52.018;8.536;2022-09-09T09:19:17;19.30;99.90
11609;DHT22;5860;52.018;8.536;2022-09-09T09:21:50;19.10;99.90
11609;DHT22;5860;52.018;8.536;2022-09-09T09:24:26;19.10;99.90
11609;DHT22;5860;52.018;8.536;2022-09-09T09:26:54;19.20;99.90
11609;DHT22;5860;52.018;8.536;2022-09-09T09:29:23;19.40;99.90
11609;DHT22;5860;52.018;8.536;2022-09-09T09:31:54;19.50;99.90
11609;DHT22;5860;52.018;8.536;2022-09-09T09:34:22;19.40;99.90
11609;DHT22;5860;52.018;8.536;2022-09-09T09:36:56;19.40;99.90
11609;DHT22;5860;52.018;8.536;2022-09-09T09:39:26;19.40;99.90
11609;DHT22;5860;52.018;8.536;2022-09-09T09:42:15;19.60;99.90
11609;DHT22;5860;52.018;8.536;2022-09-09T09:44:49;19.60;99.90
11609;DHT22;5860;52.018;8.536;2022-09-09T09:47:18;19.80;99.90
11609;DHT22;5860;52.018;8.536;2022-09-09T09:49:57;19.90;99.90
11609;DHT22;5860;52.018;8.536;2022-09-09T09:52:30;19.50;99.90
11609;DHT22;5860;52.018;8.536;2022-09-09T09:54:58;19.50;99.90
11609;DHT22;5860;52.018;8.536;2022-09-09T09:57:34;19.40;99.90
11609;DHT22;5860;52.018;8.536;2022-09-09T10:00:18;19.40;99.90
11609;DHT22;5860;52.018;8.536;2022-09-09T10:02:46;19.00;99.90
11609;DHT22;5860;52.018;8.536;2022-09-09T10:05:18;19.30;99.90
11609;DHT22;5860;52.018;8.536;2022-09-09T10:08:13;19.80;99.90
11609;DHT22;5860;52.018;8.536;2022-09-09T10:35:53;20.90;99.90
11609;DHT22;5860;52.018;8.536;2022-09-09T10:38:57;20.50;99.90
11609;DHT22;5860;52.018;8.536;2022-09-09T10:41:40;20.60;99.90
11609;DHT22;5860;52.018;8.536;2022-09-09T10:49:40;20.50;99.90
11609;DHT22;5860;52.018;8.536;2022-09-09T10:55:17;20.60;99.90
11609;DHT22;5860;52.018;8.536;2022-09-09T10:57:50;20.90;99.90
11609;DHT22;5860;52.018;8.536;2022-09-09T11:02:57;20.90;99.90
11609;DHT22;5860;52.018;8.536;2022-09-09T11:05:46;21.30;99.90
11609;DHT22;5860;52.018;8.536;2022-09-09T11:08:21;21.40;99.90
11609;DHT22;5860;52.018;8.536;2022-09-09T11:13:54;21.30;99.90
11609;DHT22;5860;52.018;8.536;2022-09-09T11:21:45;21.10;99.90
11609;DHT22;5860;52.018;8.536;2022-09-09T11:24:31;21.00;99.90
11609;DHT22;5860;52.018;8.536;2022-09-09T11:27:11;21.20;99.90
11609;DHT22;5860;52.018;8.536;2022-09-09T11:38:19;21.40;99.90
11609;DHT22;5860;52.018;8.536;2022-09-09T11:40:55;21.50;99.90
11609;DHT22;5860;52.018;8.536;2022-09-09T11:43:27;21.50;99.90
11609;DHT22;5860;52.018;8.536;2022-09-09T11:45:56;21.50;99.90
11609;DHT22;5860;52.018;8.536;2022-09-09T11:48:41;21.30;99.90
11609;DHT22;5860;52.018;8.536;2022-09-09T11:51:34;21.00;99.90
11609;DHT22;5860;52.018;8.536;2022-09-09T11:54:30;20.90;99.90
11609;DHT22;5860;52.018;8.536;2022-09-09T11:56:58;20.70;99.90
11609;DHT22;5860;52.018;8.536;2022-09-09T12:02:14;20.90;99.90
11609;DHT22;5860;52.018;8.536;2022-09-09T12:05:08;21.10;99.90
11609;DHT22;5860;52.018;8.536;2022-09-09T12:07:40;21.40;99.90
11609;DHT22;5860;52.018;8.536;2022-09-09T12:10:30;21.40;99.90
11609;DHT22;5860;52.018;8.536;2022-09-09T12:13:18;21.50;99.90
11609;DHT22;5860;52.018;8.536;2022-09-09T12:15:54;21.70;99.90
11609;DHT22;5860;52.018;8.536;2022-09-09T12:18:35;21.70;99.90
11609;DHT22;5860;52.018;8.536;2022-09-09T12:21:07;21.50;99.90
11609;DHT22;5860;52.018;8.536;2022-09-09T12:24:02;21.80;99.90
11609;DHT22;5860;52.018;8.536;2022-09-09T12:29:50;21.70;99.90
11609;DHT22;5860;52.018;8.536;2022-09-09T12:32:24;21.60;99.90
11609;DHT22;5860;52.018;8.536;2022-09-09T12:34:59;21.80;99.90
11609;DHT22;5860;52.018;8.536;2022-09-09T12:40:31;21.90;99.90
11609;DHT22;5860;52.018;8.536;2022-09-09T12:42:59;22.10;99.90
11609;DHT22;5860;52.018;8.536;2022-09-09T12:45:32;21.90;99.90
11609;DHT22;5860;52.018;8.536;2022-09-09T12:48:10;22.00;99.90
11609;DHT22;5860;52.018;8.536;2022-09-09T12:50:48;21.90;99.90
11609;DHT22;5860;52.018;8.536;2022-09-09T12:53:29;21.70;99.90
11609;DHT22;5860;52.018;8.536;2022-09-09T12:56:00;21.80;99.90
11609;DHT22;5860;52.018;8.536;2022-09-09T12:58:29;21.80;99.90
11609;DHT22;5860;52.018;8.536;2022-09-09T13:01:03;21.80;99.90
11609;DHT22;5860;52.018;8.536;2022-09-09T13:03:42;21.60;99.90
11609;DHT22;5860;52.018;8.536;2022-09-09T13:06:19;21.50;99.90
11609;DHT22;5860;52.018;8.536;2022-09-09T13:08:56;21.60;99.90
11609;DHT22;5860;52.018;8.536;2022-09-09T13:11:36;21.70;99.90
11609;DHT22;5860;52.018;8.536;2022-09-09T13:14:05;21.80;99.90
11609;DHT22;5860;52.018;8.536;2022-09-09T13:16:34;21.90;99.90
11609;DHT22;5860;52.018;8.536;2022-09-09T13:19:15;21.80;99.90
11609;DHT22;5860;52.018;8.536;2022-09-09T13:21:43;21.50;99.90
11609;DHT22;5860;52.018;8.536;2022-09-09T13:24:31;21.60;99.90
11609;DHT22;5860;52.018;8.536;2022-09-09T13:27:05;21.50;99.90
11609;DHT22;5860;52.018;8.536;2022-09-09T13:29:54;21.70;99.90
11609;DHT22;5860;52.018;8.536;2022-09-09T13:32:23;21.70;99.90
11609;DHT22;5860;52.018;8.536;2022-09-09T13:34:56;21.70;99.90
11609;DHT22;5860;52.018;8.536;2022-09-09T13:37:37;21.70;99.90
11609;DHT22;5860;52.018;8.536;2022-09-09T13:40:06;21.90;99.90
11609;DHT22;5860;52.018;8.536;2022-09-09T13:42:38;22.30;99.90
11609;DHT22;5860;52.018;8.536;2022-09-09T13:45:23;22.20;99.90
11609;DHT22;5860;52.018;8.536;2022-09-09T13:47:51;22.50;99.90
11609;DHT22;5860;52.018;8.536;2022-09-09T13:50:26;22.70;99.90
11609;DHT22;5860;52.018;8.536;2022-09-09T13:52:55;22.60;99.90
11609;DHT22;5860;52.018;8.536;2022-09-09T13:55:23;22.60;99.90
11609;DHT22;5860;52.018;8.536;2022-09-09T13:57:52;22.40;99.90
11609;DHT22;5860;52.018;8.536;2022-09-09T14:00:19;22.10;99.90
11609;DHT22;5860;52.018;8.536;2022-09-09T14:02:48;22.00;99.90
11609;DHT22;5860;52.018;8.536;2022-09-09T14:05:15;22.00;99.90
11609;DHT22;5860;52.018;8.536;2022-09-09T14:07:43;22.10;99.90
11609;DHT22;5860;52.018;8.536;2022-09-09T14:10:11;22.30;99.90
11609;DHT22;5860;52.018;8.536;2022-09-09T14:12:39;21.80;99.90
11609;DHT22;5860;52.018;8.536;2022-09-09T14:15:09;21.70;99.90
11609;DHT22;5860;52.018;8.536;2022-09-09T14:17:36;21.50;99.90
11609;DHT22;5860;52.018;8.536;2022-09-09T14:20:04;21.70;99.90
11609;DHT22;5860;52.018;8.536;2022-09-09T14:22:36;21.70;99.90
11609;DHT22;5860;52.018;8.536;2022-09-09T14:25:03;21.50;99.90
11609;DHT22;5860;52.018;8.536;2022-09-09T14:27:31;21.50;99.90
11609;DHT22;5860;52.018;8.536;2022-09-09T14:29:58;21.60;99.90
11609;DHT22;5860;52.018;8.536;2022-09-09T14:32:27;21.80;99.90
11609;DHT22;5860;52.018;8.536;2022-09-09T14:34:53;21.80;99.90
11609;DHT22;5860;52.018;8.536;2022-09-09T14:37:20;21.70;99.90
11609;DHT22;5860;52.018;8.536;2022-09-09T14:39:47;21.80;99.90
11609;DHT22;5860;52.018;8.536;2022-09-09T14:42:17;21.60;99.90
11609;DHT22;5860;52.018;8.536;2022-09-09T14:44:44;21.50;99.90
11609;DHT22;5860;52.018;8.536;2022-09-09T14:47:11;21.50;99.90
11609;DHT22;5860;52.018;8.536;2022-09-09T14:49:38;21.70;99.90
11609;DHT22;5860;52.018;8.536;2022-09-09T14:52:09;21.60;99.90
11609;DHT22;5860;52.018;8.536;2022-09-09T14:54:36;21.70;99.90
11609;DHT22;5860;52.018;8.536;2022-09-09T14:57:03;21.80;99.90
11609;DHT22;5860;52.018;8.536;2022-09-09T14:59:30;21.90;99.90
11609;DHT22;5860;52.018;8.536;2022-09-09T15:01:57;21.90;99.90
11609;DHT22;5860;52.018;8.536;2022-09-09T15:04:23;21.70;99.90
11609;DHT22;5860;52.018;8.536;2022-09-09T15:06:50;21.70;99.90
11609;DHT22;5860;52.018;8.536;2022-09-09T15:09:19;21.50;99.90
11609;DHT22;5860;52.018;8.536;2022-09-09T15:11:46;21.70;99.90
11609;DHT22;5860;52.018;8.536;2022-09-09T15:14:13;21.70;99.90
11609;DHT22;5860;52.018;8.536;2022-09-09T15:16:40;21.50;99.90
11609;DHT22;5860;52.018;8.536;2022-09-09T15:19:07;21.40;99.90
11609;DHT22;5860;52.018;8.536;2022-09-09T15:21:36;21.40;99.90
11609;DHT22;5860;52.018;8.536;2022-09-09T15:24:03;21.50;99.90
11609;DHT22;5860;52.018;8.536;2022-09-09T15:26:31;21.20;99.90
11609;DHT22;5860;52.018;8.536;2022-09-09T15:28:58;21.30;99.90
11609;DHT22;5860;52.018;8.536;2022-09-09T15:31:28;21.40;99.90
11609;DHT22;5860;52.018;8.536;2022-09-09T15:34:00;21.30;99.90
11609;DHT22;5860;52.018;8.536;2022-09-09T15:38:55;21.30;99.90
11609;DHT22;5860;52.018;8.536;2022-09-09T15:41:23;21.10;99.90
11609;DHT22;5860;52.018;8.536;2022-09-09T15:43:52;21.00;99.90
11609;DHT22;5860;52.018;8.536;2022-09-09T15:48:55;21.00;99.90
11609;DHT22;5860;52.018;8.536;2022-09-09T15:51:23;20.90;99.90
11609;DHT22;5860;52.018;8.536;2022-09-09T15:54:09;20.90;99.90
11609;DHT22;5860;52.018;8.536;2022-09-09T15:56:36;20.70;99.90
11609;DHT22;5860;52.018;8.536;2022-09-09T15:59:03;20.60;99.90
11609;DHT22;5860;52.018;8.536;2022-09-09T16:01:31;20.60;99.90
11609;DHT22;5860;52.018;8.536;2022-09-09T16:03:59;20.60;99.90
11609;DHT22;5860;52.018;8.536;2022-09-09T16:06:28;20.40;99.90
11609;DHT22;5860;52.018;8.536;2022-09-09T16:08:57;20.30;99.90
11609;DHT22;5860;52.018;8.536;2022-09-09T16:11:31;20.20;99.90
11609;DHT22;5860;52.018;8.536;2022-09-09T16:13:59;20.10;99.90
11609;DHT22;5860;52.018;8.536;2022-09-09T16:16:28;20.00;99.90
11609;DHT22;5860;52.018;8.536;2022-09-09T16:19:00;19.90;99.90
11609;DHT22;5860;52.018;8.536;2022-09-09T16:21:30;19.90;99.90
11609;DHT22;5860;52.018;8.536;2022-09-09T16:24:00;19.90;99.90
11609;DHT22;5860;52.018;8.536;2022-09-09T16:26:28;19.90;99.90
11609;DHT22;5860;52.018;8.536;2022-09-09T16:28:57;20.10;99.90
11609;DHT22;5860;52.018;8.536;2022-09-09T16:31:26;20.20;99.90
11609;DHT22;5860;52.018;8.536;2022-09-09T16:33:53;20.20;99.90
11609;DHT22;5860;52.018;8.536;2022-09-09T16:36:24;20.10;99.90
11609;DHT22;5860;52.018;8.536;2022-09-09T16:38:56;20.00;99.90
11609;DHT22;5860;52.018;8.536;2022-09-09T16:41:25;20.00;99.90
11609;DHT22;5860;52.018;8.536;2022-09-09T16:43:54;19.90;99.90
11609;DHT22;5860;52.018;8.536;2022-09-09T16:46:22;19.90;99.90
11609;DHT22;5860;52.018;8.536;2022-09-09T16:48:51;19.90;99.90
11609;DHT22;5860;52.018;8.536;2022-09-09T16:52:02;19.80;99.90
11609;DHT22;5860;52.018;8.536;2022-09-09T16:54:11;19.70;99.90
11609;DHT22;5860;52.018;8.536;2022-09-09T16:56:42;19.70;99.90
11609;DHT22;5860;52.018;8.536;2022-09-09T16:59:14;19.60;99.90
11609;DHT22;5860;52.018;8.536;2022-09-09T17:01:43;19.60;99.90
11609;DHT22;5860;52.018;8.536;2022-09-09T17:04:15;19.50;99.90
11609;DHT22;5860;52.018;8.536;2022-09-09T17:06:48;19.50;99.90
11609;DHT22;5860;52.018;8.536;2022-09-09T17:09:19;19.40;99.90
11609;DHT22;5860;52.018;8.536;2022-09-09T17:11:47;19.20;99.90
11609;DHT22;5860;52.018;8.536;2022-09-09T17:14:18;19.10;99.90
11609;DHT22;5860;52.018;8.536;2022-09-09T17:16:45;18.90;99.90
11609;DHT22;5860;52.018;8.536;2022-09-09T17:19:14;18.40;99.90
11609;DHT22;5860;52.018;8.536;2022-09-09T17:21:41;18.20;99.90
11609;DHT22;5860;52.018;8.536;2022-09-09T17:24:28;18.00;99.90
11609;DHT22;5860;52.018;8.536;2022-09-09T17:26:56;17.60;99.90
11609;DHT22;5860;52.018;8.536;2022-09-09T17:29:24;17.50;99.90
11609;DHT22;5860;52.018;8.536;2022-09-09T17:31:51;17.50;99.90
11609;DHT22;5860;52.018;8.536;2022-09-09T17:34:18;17.40;99.90
11609;DHT22;5860;52.018;8.536;2022-09-09T17:36:45;17.40;99.90
11609;DHT22;5860;52.018;8.536;2022-09-09T17:39:12;17.30;99.90
11609;DHT22;5860;52.018;8.536;2022-09-09T17:41:40;17.20;99.90
11609;DHT22;5860;52.018;8.536;2022-09-09T17:44:08;17.20;99.90
11609;DHT22;5860;52.018;8.536;2022-09-09T17:46:38;17.30;99.90
11609;DHT22;5860;52.018;8.536;2022-09-09T17:49:14;17.20;99.90
11609;DHT22;5860;52.018;8.536;2022-09-09T17:51:42;17.00;99.90
11609;DHT22;5860;52.018;8.536;2022-09-09T17:54:15;17.10;99.90
11609;DHT22;5860;52.018;8.536;2022-09-09T17:56:43;17.20;99.90
11609;DHT22;5860;52.018;8.536;2022-09-09T17:59:12;17.10;99.90
11609;DHT22;5860;52.018;8.536;2022-09-09T18:01:41;17.10;99.90
11609;DHT22;5860;52.018;8.536;2022-09-09T18:04:11;17.00;99.90
11609;DHT22;5860;52.018;8.536;2022-09-09T18:06:44;17.00;99.90